sensor_id;sensor_type;location;lat;lon;timestamp;temperature;humidity
6696;DHT22;3385;48.928;10.330;2023-07-24T00:02:25;18.70;99.90
6696;DHT22;3385;48.928;10.330;2023-07-24T00:04:50;19.10;99.90
6696;DHT22;3385;48.928;10.330;2023-07-24T00:07:16;19.00;99.90
6696;DHT22;3385;48.928;10.330;2023-07-24T00:09:42;19.10;99.90
6696;DHT22;3385;48.928;10.330;2023-07-24T00:12:08;19.30;99.90
6696;DHT22;3385;48.928;10.330;2023-07-24T00:14:33;19.30;99.90
6696;DHT22;3385;48.928;10.330;2023-07-24T00:16:59;19.00;99.90
6696;DHT22;3385;48.928;10.330;2023-07-24T00:19:25;19.50;99.90
6696;DHT22;3385;48.928;10.330;2023-07-24T00:21:51;19.70;99.90
6696;DHT22;3385;48.928;10.330;2023-07-24T00:24:16;19.60;99.90
6696;DHT22;3385;48.928;10.330;2023-07-24T00:26:42;19.70;99.90
6696;DHT22;3385;48.928;10.330;2023-07-24T00:29:08;19.30;99.90
6696;DHT22;3385;48.928;10.330;2023-07-24T00:31:33;19.10;99.90
6696;DHT22;3385;48.928;10.330;2023-07-24T00:33:59;18.70;99.90
6696;DHT22;3385;48.928;10.330;2023-07-24T00:36:26;17.80;99.90
6696;DHT22;3385;48.928;10.330;2023-07-24T00:38:52;17.60;99.90
6696;DHT22;3385;48.928;10.330;2023-07-24T00:41:17;17.50;99.90
6696;DHT22;3385;48.928;10.330;2023-07-24T00:43:43;17.20;99.90
6696;DHT22;3385;48.928;10.330;2023-07-24T00:46:10;16.80;99.90
6696;DHT22;3385;48.928;10.330;2023-07-24T00:48:37;16.80;99.90
6696;DHT22;3385;48.928;10.330;2023-07-24T00:51:03;16.50;99.90
6696;DHT22;3385;48.928;10.330;2023-07-24T00:53:29;16.30;99.90
6696;DHT22;3385;48.928;10.330;2023-07-24T00:55:55;16.50;99.90
6696;DHT22;3385;48.928;10.330;2023-07-24T00:58:21;16.80;99.90
6696;DHT22;3385;48.928;10.330;2023-07-24T01:00:47;16.60;99.90
6696;DHT22;3385;48.928;10.330;2023-07-24T01:03:14;16.80;99.90
6696;DHT22;3385;48.928;10.330;2023-07-24T01:05:39;16.30;99.90
6696;DHT22;3385;48.928;10.330;2023-07-24T01:08:07;16.30;99.90
6696;DHT22;3385;48.928;10.330;2023-07-24T01:10:32;16.20;99.90
6696;DHT22;3385;48.928;10.330;2023-07-24T01:13:15;16.50;99.90
6696;DHT22;3385;48.928;10.330;2023-07-24T01:18:17;16.80;99.90
6696;DHT22;3385;48.928;10.330;2023-07-24T01:20:55;16.30;99.90
6696;DHT22;3385;48.928;10.330;2023-07-24T01:26:01;16.50;99.90
6696;DHT22;3385;48.928;10.330;2023-07-24T01:28:30;16.10;99.90
6696;DHT22;3385;48.928;10.330;2023-07-24T01:30:56;16.00;99.90
6696;DHT22;3385;48.928;10.330;2023-07-24T01:33:23;16.00;99.90
6696;DHT22;3385;48.928;10.330;2023-07-24T01:35:55;16.20;99.90
6696;DHT22;3385;48.928;10.330;2023-07-24T01:38:24;16.20;99.90
6696;DHT22;3385;48.928;10.330;2023-07-24T01:40:53;15.80;99.90
6696;DHT22;3385;48.928;10.330;2023-07-24T01:43:18;15.90;99.90
6696;DHT22;3385;48.928;10.330;2023-07-24T01:45:44;15.80;99.90
6696;DHT22;3385;48.928;10.330;2023-07-24T01:48:10;15.70;99.90
6696;DHT22;3385;48.928;10.330;2023-07-24T01:50:36;15.50;99.90
6696;DHT22;3385;48.928;10.330;2023-07-24T01:53:01;15.90;99.90
6696;DHT22;3385;48.928;10.330;2023-07-24T01:55:27;15.90;99.90
6696;DHT22;3385;48.928;10.330;2023-07-24T01:57:53;15.80;99.90
6696;DHT22;3385;48.928;10.330;2023-07-24T02:00:19;15.50;99.90
6696;DHT22;3385;48.928;10.330;2023-07-24T02:02:45;15.40;99.90
6696;DHT22;3385;48.928;10.330;2023-07-24T02:05:10;15.20;99.90
6696;DHT22;3385;48.928;10.330;2023-07-24T02:07:36;15.30;99.90
6696;DHT22;3385;48.928;10.330;2023-07-24T02:10:02;15.30;99.90
6696;DHT22;3385;48.928;10.330;2023-07-24T02:12:27;15.30;99.90
6696;DHT22;3385;48.928;10.330;2023-07-24T02:14:53;15.10;99.90
6696;DHT22;3385;48.928;10.330;2023-07-24T02:17:20;15.20;99.90
6696;DHT22;3385;48.928;10.330;2023-07-24T02:19:46;15.00;99.90
6696;DHT22;3385;48.928;10.330;2023-07-24T02:22:11;15.30;99.90
6696;DHT22;3385;48.928;10.330;2023-07-24T02:24:37;15.30;99.90
6696;DHT22;3385;48.928;10.330;2023-07-24T02:27:04;15.70;99.90
6696;DHT22;3385;48.928;10.330;2023-07-24T02:29:30;15.40;99.90
6696;DHT22;3385;48.928;10.330;2023-07-24T02:31:58;15.30;99.90
6696;DHT22;3385;48.928;10.330;2023-07-24T02:34:24;15.30;99.90
6696;DHT22;3385;48.928;10.330;2023-07-24T02:36:52;15.40;99.90
6696;DHT22;3385;48.928;10.330;2023-07-24T02:39:19;15.50;99.90
6696;DHT22;3385;48.928;10.330;2023-07-24T02:41:44;15.70;99.90
6696;DHT22;3385;48.928;10.330;2023-07-24T02:44:11;15.90;99.90
6696;DHT22;3385;48.928;10.330;2023-07-24T02:46:37;14.60;99.90
6696;DHT22;3385;48.928;10.330;2023-07-24T02:49:02;15.50;99.90
6696;DHT22;3385;48.928;10.330;2023-07-24T02:51:28;15.60;99.90
6696;DHT22;3385;48.928;10.330;2023-07-24T02:53:54;15.60;99.90
6696;DHT22;3385;48.928;10.330;2023-07-24T02:56:20;15.60;99.90
6696;DHT22;3385;48.928;10.330;2023-07-24T02:58:46;16.10;99.90
6696;DHT22;3385;48.928;10.330;2023-07-24T03:01:12;15.90;99.90
6696;DHT22;3385;48.928;10.330;2023-07-24T03:03:40;15.70;99.90
6696;DHT22;3385;48.928;10.330;2023-07-24T03:06:05;15.60;99.90
6696;DHT22;3385;48.928;10.330;2023-07-24T03:08:31;15.70;99.90
6696;DHT22;3385;48.928;10.330;2023-07-24T03:10:57;15.80;99.90
6696;DHT22;3385;48.928;10.330;2023-07-24T03:13:23;16.00;99.90
6696;DHT22;3385;48.928;10.330;2023-07-24T03:15:58;15.50;99.90
6696;DHT22;3385;48.928;10.330;2023-07-24T03:18:24;15.70;99.90
6696;DHT22;3385;48.928;10.330;2023-07-24T03:20:50;15.50;99.90
6696;DHT22;3385;48.928;10.330;2023-07-24T03:23:16;15.60;99.90
6696;DHT22;3385;48.928;10.330;2023-07-24T03:25:42;15.50;99.90
6696;DHT22;3385;48.928;10.330;2023-07-24T03:28:09;15.50;99.90
6696;DHT22;3385;48.928;10.330;2023-07-24T03:30:34;15.30;99.90
6696;DHT22;3385;48.928;10.330;2023-07-24T03:33:01;15.40;99.90
6696;DHT22;3385;48.928;10.330;2023-07-24T03:35:27;15.80;99.90
6696;DHT22;3385;48.928;10.330;2023-07-24T03:37:53;15.40;99.90
6696;DHT22;3385;48.928;10.330;2023-07-24T03:40:18;15.20;99.90
6696;DHT22;3385;48.928;10.330;2023-07-24T03:42:44;15.10;99.90
6696;DHT22;3385;48.928;10.330;2023-07-24T03:45:10;15.30;99.90
6696;DHT22;3385;48.928;10.330;2023-07-24T03:47:36;14.90;99.90
6696;DHT22;3385;48.928;10.330;2023-07-24T03:50:01;14.90;99.90
6696;DHT22;3385;48.928;10.330;2023-07-24T03:52:27;14.80;99.90
6696;DHT22;3385;48.928;10.330;2023-07-24T03:54:53;14.90;99.90
6696;DHT22;3385;48.928;10.330;2023-07-24T03:57:18;14.80;99.90
6696;DHT22;3385;48.928;10.330;2023-07-24T03:59:44;14.80;99.90
6696;DHT22;3385;48.928;10.330;2023-07-24T04:02:10;15.30;99.90
6696;DHT22;3385;48.928;10.330;2023-07-24T04:04:36;15.30;99.90
6696;DHT22;3385;48.928;10.330;2023-07-24T04:07:03;15.00;99.90
6696;DHT22;3385;48.928;10.330;2023-07-24T04:09:29;15.30;99.90
6696;DHT22;3385;48.928;10.330;2023-07-24T04:11:54;15.20;99.90
6696;DHT22;3385;48.928;10.330;2023-07-24T04:14:20;15.30;99.90
6696;DHT22;3385;48.928;10.330;2023-07-24T04:16:46;15.80;99.90
6696;DHT22;3385;48.928;10.330;2023-07-24T04:19:12;15.70;99.90
6696;DHT22;3385;48.928;10.330;2023-07-24T04:21:37;15.90;99.90
6696;DHT22;3385;48.928;10.330;2023-07-24T04:24:03;16.00;99.90
6696;DHT22;3385;48.928;10.330;2023-07-24T04:26:29;16.00;99.90
6696;DHT22;3385;48.928;10.330;2023-07-24T04:28:54;16.10;99.90
6696;DHT22;3385;48.928;10.330;2023-07-24T04:31:20;16.50;99.90
6696;DHT22;3385;48.928;10.330;2023-07-24T04:33:46;16.40;99.90
6696;DHT22;3385;48.928;10.330;2023-07-24T04:36:11;16.70;99.90
6696;DHT22;3385;48.928;10.330;2023-07-24T04:38:37;16.70;99.90
6696;DHT22;3385;48.928;10.330;2023-07-24T04:41:03;16.70;99.90
6696;DHT22;3385;48.928;10.330;2023-07-24T04:43:29;16.90;99.90
6696;DHT22;3385;48.928;10.330;2023-07-24T04:45:55;17.00;99.90
6696;DHT22;3385;48.928;10.330;2023-07-24T04:48:20;17.00;99.90
6696;DHT22;3385;48.928;10.330;2023-07-24T04:50:46;17.00;99.90
6696;DHT22;3385;48.928;10.330;2023-07-24T04:53:12;16.90;99.90
6696;DHT22;3385;48.928;10.330;2023-07-24T04:55:38;17.30;99.90
6696;DHT22;3385;48.928;10.330;2023-07-24T05:00:29;17.60;99.90
6696;DHT22;3385;48.928;10.330;2023-07-24T05:02:55;17.70;99.90
6696;DHT22;3385;48.928;10.330;2023-07-24T05:05:21;17.80;99.90
6696;DHT22;3385;48.928;10.330;2023-07-24T05:07:46;18.20;99.90
6696;DHT22;3385;48.928;10.330;2023-07-24T05:10:12;17.90;99.90
6696;DHT22;3385;48.928;10.330;2023-07-24T05:12:41;18.40;99.90
6696;DHT22;3385;48.928;10.330;2023-07-24T05:15:08;18.70;99.90
6696;DHT22;3385;48.928;10.330;2023-07-24T05:17:34;18.30;99.90
6696;DHT22;3385;48.928;10.330;2023-07-24T05:19:59;18.80;99.90
6696;DHT22;3385;48.928;10.330;2023-07-24T05:22:25;18.70;99.90
6696;DHT22;3385;48.928;10.330;2023-07-24T05:24:51;18.60;99.90
6696;DHT22;3385;48.928;10.330;2023-07-24T05:27:16;18.70;99.90
6696;DHT22;3385;48.928;10.330;2023-07-24T05:29:42;18.50;99.90
6696;DHT22;3385;48.928;10.330;2023-07-24T05:32:08;18.40;99.90
6696;DHT22;3385;48.928;10.330;2023-07-24T05:34:34;18.60;99.90
6696;DHT22;3385;48.928;10.330;2023-07-24T05:37:00;18.30;99.90
6696;DHT22;3385;48.928;10.330;2023-07-24T05:39:25;18.60;99.90
6696;DHT22;3385;48.928;10.330;2023-07-24T05:41:51;18.50;99.90
6696;DHT22;3385;48.928;10.330;2023-07-24T05:44:17;18.20;99.90
6696;DHT22;3385;48.928;10.330;2023-07-24T05:49:08;18.70;99.90
6696;DHT22;3385;48.928;10.330;2023-07-24T05:51:34;18.40;99.90
6696;DHT22;3385;48.928;10.330;2023-07-24T05:54:00;18.50;99.90
6696;DHT22;3385;48.928;10.330;2023-07-24T05:56:25;18.80;99.90
6696;DHT22;3385;48.928;10.330;2023-07-24T05:58:51;19.20;99.90
6696;DHT22;3385;48.928;10.330;2023-07-24T06:01:17;19.20;99.90
6696;DHT22;3385;48.928;10.330;2023-07-24T06:03:43;19.20;99.90
6696;DHT22;3385;48.928;10.330;2023-07-24T06:06:08;19.20;99.90
6696;DHT22;3385;48.928;10.330;2023-07-24T06:08:34;19.50;99.90
6696;DHT22;3385;48.928;10.330;2023-07-24T06:11:00;19.60;99.90
6696;DHT22;3385;48.928;10.330;2023-07-24T06:13:25;19.90;99.90
6696;DHT22;3385;48.928;10.330;2023-07-24T06:15:52;19.80;99.90
6696;DHT22;3385;48.928;10.330;2023-07-24T06:18:17;20.20;99.90
6696;DHT22;3385;48.928;10.330;2023-07-24T06:20:43;20.20;99.90
6696;DHT22;3385;48.928;10.330;2023-07-24T06:23:09;20.70;99.90
6696;DHT22;3385;48.928;10.330;2023-07-24T06:25:35;20.90;99.90
6696;DHT22;3385;48.928;10.330;2023-07-24T06:28:00;21.10;99.90
6696;DHT22;3385;48.928;10.330;2023-07-24T06:30:26;21.00;99.90
6696;DHT22;3385;48.928;10.330;2023-07-24T06:32:52;21.10;99.90
6696;DHT22;3385;48.928;10.330;2023-07-24T06:35:18;21.30;99.90
6696;DHT22;3385;48.928;10.330;2023-07-24T06:40:11;21.80;99.90
6696;DHT22;3385;48.928;10.330;2023-07-24T06:42:37;21.90;99.90
6696;DHT22;3385;48.928;10.330;2023-07-24T06:45:02;22.10;99.90
6696;DHT22;3385;48.928;10.330;2023-07-24T06:47:28;22.20;99.90
6696;DHT22;3385;48.928;10.330;2023-07-24T06:49:54;22.20;99.90
6696;DHT22;3385;48.928;10.330;2023-07-24T06:52:20;22.40;99.90
6696;DHT22;3385;48.928;10.330;2023-07-24T06:54:45;22.40;99.90
6696;DHT22;3385;48.928;10.330;2023-07-24T06:57:11;22.50;99.90
6696;DHT22;3385;48.928;10.330;2023-07-24T06:59:37;22.50;99.90
6696;DHT22;3385;48.928;10.330;2023-07-24T07:02:02;22.40;99.90
6696;DHT22;3385;48.928;10.330;2023-07-24T07:04:28;22.40;99.90
6696;DHT22;3385;48.928;10.330;2023-07-24T07:06:54;22.50;99.90
6696;DHT22;3385;48.928;10.330;2023-07-24T07:09:20;22.50;99.90
6696;DHT22;3385;48.928;10.330;2023-07-24T07:11:46;22.20;99.90
6696;DHT22;3385;48.928;10.330;2023-07-24T07:14:11;22.10;99.90
6696;DHT22;3385;48.928;10.330;2023-07-24T07:16:38;22.00;99.90
6696;DHT22;3385;48.928;10.330;2023-07-24T07:19:04;21.90;99.90
6696;DHT22;3385;48.928;10.330;2023-07-24T07:21:30;21.90;99.90
6696;DHT22;3385;48.928;10.330;2023-07-24T07:23:56;21.80;99.90
6696;DHT22;3385;48.928;10.330;2023-07-24T07:26:21;21.80;99.90
6696;DHT22;3385;48.928;10.330;2023-07-24T07:28:47;22.10;99.90
6696;DHT22;3385;48.928;10.330;2023-07-24T07:31:14;21.70;99.90
6696;DHT22;3385;48.928;10.330;2023-07-24T07:33:39;21.50;99.90
6696;DHT22;3385;48.928;10.330;2023-07-24T07:36:05;21.40;99.90
6696;DHT22;3385;48.928;10.330;2023-07-24T07:38:32;21.80;99.90
6696;DHT22;3385;48.928;10.330;2023-07-24T07:40:57;20.90;99.90
6696;DHT22;3385;48.928;10.330;2023-07-24T07:43:23;21.30;99.90
6696;DHT22;3385;48.928;10.330;2023-07-24T07:45:49;21.30;99.90
6696;DHT22;3385;48.928;10.330;2023-07-24T07:50:41;22.00;99.90
6696;DHT22;3385;48.928;10.330;2023-07-24T07:53:06;21.50;99.90
6696;DHT22;3385;48.928;10.330;2023-07-24T07:55:32;21.30;99.90
6696;DHT22;3385;48.928;10.330;2023-07-24T07:57:58;21.40;99.90
6696;DHT22;3385;48.928;10.330;2023-07-24T08:00:24;21.40;99.90
6696;DHT22;3385;48.928;10.330;2023-07-24T08:02:49;21.20;99.90
6696;DHT22;3385;48.928;10.330;2023-07-24T08:05:15;21.30;99.90
6696;DHT22;3385;48.928;10.330;2023-07-24T08:10:08;21.50;99.90
6696;DHT22;3385;48.928;10.330;2023-07-24T08:12:34;21.60;99.90
6696;DHT22;3385;48.928;10.330;2023-07-24T08:14:59;19.40;99.90
6696;DHT22;3385;48.928;10.330;2023-07-24T08:17:25;21.80;99.90
6696;DHT22;3385;48.928;10.330;2023-07-24T08:19:51;21.80;99.90
6696;DHT22;3385;48.928;10.330;2023-07-24T08:22:17;21.40;99.90
6696;DHT22;3385;48.928;10.330;2023-07-24T08:24:45;21.60;99.90
6696;DHT22;3385;48.928;10.330;2023-07-24T08:27:11;21.80;99.90
6696;DHT22;3385;48.928;10.330;2023-07-24T08:29:36;22.10;99.90
6696;DHT22;3385;48.928;10.330;2023-07-24T08:32:04;22.00;99.90
6696;DHT22;3385;48.928;10.330;2023-07-24T08:34:30;22.30;99.90
6696;DHT22;3385;48.928;10.330;2023-07-24T08:36:55;22.60;99.90
6696;DHT22;3385;48.928;10.330;2023-07-24T08:39:21;23.00;99.90
6696;DHT22;3385;48.928;10.330;2023-07-24T08:41:47;23.20;99.90
6696;DHT22;3385;48.928;10.330;2023-07-24T08:44:13;23.50;99.90
6696;DHT22;3385;48.928;10.330;2023-07-24T08:46:39;23.70;99.90
6696;DHT22;3385;48.928;10.330;2023-07-24T08:49:13;23.70;99.90
6696;DHT22;3385;48.928;10.330;2023-07-24T08:51:41;23.90;99.90
6696;DHT22;3385;48.928;10.330;2023-07-24T08:54:08;23.70;99.90
6696;DHT22;3385;48.928;10.330;2023-07-24T08:56:33;24.10;99.90
6696;DHT22;3385;48.928;10.330;2023-07-24T08:59:01;24.00;99.90
6696;DHT22;3385;48.928;10.330;2023-07-24T09:01:27;24.00;99.90
6696;DHT22;3385;48.928;10.330;2023-07-24T09:03:53;24.90;99.90
6696;DHT22;3385;48.928;10.330;2023-07-24T09:06:18;25.00;99.90
6696;DHT22;3385;48.928;10.330;2023-07-24T09:08:44;25.20;99.90
6696;DHT22;3385;48.928;10.330;2023-07-24T09:11:12;25.20;99.90
6696;DHT22;3385;48.928;10.330;2023-07-24T09:13:42;25.40;99.90
6696;DHT22;3385;48.928;10.330;2023-07-24T09:16:08;25.90;99.90
6696;DHT22;3385;48.928;10.330;2023-07-24T09:18:41;26.00;99.90
6696;DHT22;3385;48.928;10.330;2023-07-24T09:21:08;26.40;99.90
6696;DHT22;3385;48.928;10.330;2023-07-24T09:23:33;26.70;99.90
6696;DHT22;3385;48.928;10.330;2023-07-24T09:26:05;26.80;99.90
6696;DHT22;3385;48.928;10.330;2023-07-24T09:28:33;26.50;99.90
6696;DHT22;3385;48.928;10.330;2023-07-24T09:30:59;26.20;99.90
6696;DHT22;3385;48.928;10.330;2023-07-24T09:33:39;26.10;99.90
6696;DHT22;3385;48.928;10.330;2023-07-24T09:36:06;25.50;99.90
6696;DHT22;3385;48.928;10.330;2023-07-24T09:38:36;26.10;99.90
6696;DHT22;3385;48.928;10.330;2023-07-24T09:41:03;26.00;99.90
6696;DHT22;3385;48.928;10.330;2023-07-24T09:43:29;25.80;99.90
6696;DHT22;3385;48.928;10.330;2023-07-24T09:45:56;26.90;99.90
6696;DHT22;3385;48.928;10.330;2023-07-24T09:48:24;25.90;99.90
6696;DHT22;3385;48.928;10.330;2023-07-24T09:50:54;25.60;99.90
6696;DHT22;3385;48.928;10.330;2023-07-24T09:53:31;24.80;99.90
6696;DHT22;3385;48.928;10.330;2023-07-24T09:56:00;25.20;99.90
6696;DHT22;3385;48.928;10.330;2023-07-24T09:58:26;24.80;99.90
6696;DHT22;3385;48.928;10.330;2023-07-24T10:00:53;24.50;99.90
6696;DHT22;3385;48.928;10.330;2023-07-24T10:03:19;24.20;99.90
6696;DHT22;3385;48.928;10.330;2023-07-24T10:05:47;23.80;99.90
6696;DHT22;3385;48.928;10.330;2023-07-24T10:08:15;23.30;99.90
6696;DHT22;3385;48.928;10.330;2023-07-24T10:10:42;23.20;99.90
6696;DHT22;3385;48.928;10.330;2023-07-24T10:13:09;23.00;99.90
6696;DHT22;3385;48.928;10.330;2023-07-24T10:15:37;22.60;99.90
6696;DHT22;3385;48.928;10.330;2023-07-24T10:18:06;22.70;99.90
6696;DHT22;3385;48.928;10.330;2023-07-24T10:20:37;22.70;99.90
6696;DHT22;3385;48.928;10.330;2023-07-24T10:23:04;22.80;99.90
6696;DHT22;3385;48.928;10.330;2023-07-24T10:25:32;22.80;99.90
6696;DHT22;3385;48.928;10.330;2023-07-24T10:28:02;22.70;99.90
6696;DHT22;3385;48.928;10.330;2023-07-24T10:30:32;22.60;99.90
6696;DHT22;3385;48.928;10.330;2023-07-24T10:33:10;22.60;99.90
6696;DHT22;3385;48.928;10.330;2023-07-24T10:35:51;22.40;99.90
6696;DHT22;3385;48.928;10.330;2023-07-24T10:38:17;22.10;99.90
6696;DHT22;3385;48.928;10.330;2023-07-24T10:40:45;22.40;99.90
6696;DHT22;3385;48.928;10.330;2023-07-24T10:43:18;21.80;99.90
6696;DHT22;3385;48.928;10.330;2023-07-24T10:45:53;21.70;99.90
6696;DHT22;3385;48.928;10.330;2023-07-24T10:48:21;21.50;99.90
6696;DHT22;3385;48.928;10.330;2023-07-24T10:50:49;21.30;99.90
6696;DHT22;3385;48.928;10.330;2023-07-24T10:53:17;21.40;99.90
6696;DHT22;3385;48.928;10.330;2023-07-24T10:55:43;21.40;99.90
6696;DHT22;3385;48.928;10.330;2023-07-24T10:58:10;21.40;99.90
6696;DHT22;3385;48.928;10.330;2023-07-24T11:00:36;21.30;99.90
6696;DHT22;3385;48.928;10.330;2023-07-24T11:03:03;21.30;99.90
6696;DHT22;3385;48.928;10.330;2023-07-24T11:05:29;21.20;99.90
6696;DHT22;3385;48.928;10.330;2023-07-24T11:07:55;21.10;99.90
6696;DHT22;3385;48.928;10.330;2023-07-24T11:10:22;21.30;99.90
6696;DHT22;3385;48.928;10.330;2023-07-24T11:12:48;21.30;99.90
6696;DHT22;3385;48.928;10.330;2023-07-24T11:15:16;21.50;99.90
6696;DHT22;3385;48.928;10.330;2023-07-24T11:17:42;21.80;99.90
6696;DHT22;3385;48.928;10.330;2023-07-24T11:20:12;21.80;99.90
6696;DHT22;3385;48.928;10.330;2023-07-24T11:22:39;21.80;99.90
6696;DHT22;3385;48.928;10.330;2023-07-24T11:25:06;21.90;99.90
6696;DHT22;3385;48.928;10.330;2023-07-24T11:27:33;21.80;99.90
6696;DHT22;3385;48.928;10.330;2023-07-24T11:30:03;22.00;99.90
6696;DHT22;3385;48.928;10.330;2023-07-24T11:32:28;21.40;99.90
6696;DHT22;3385;48.928;10.330;2023-07-24T11:34:54;20.80;99.90
6696;DHT22;3385;48.928;10.330;2023-07-24T11:37:20;20.80;99.90
6696;DHT22;3385;48.928;10.330;2023-07-24T11:39:56;20.60;99.90
6696;DHT22;3385;48.928;10.330;2023-07-24T11:42:27;20.30;99.90
6696;DHT22;3385;48.928;10.330;2023-07-24T11:44:53;20.30;99.90
6696;DHT22;3385;48.928;10.330;2023-07-24T11:47:19;20.30;99.90
6696;DHT22;3385;48.928;10.330;2023-07-24T11:49:59;19.90;99.90
6696;DHT22;3385;48.928;10.330;2023-07-24T11:52:25;19.70;99.90
6696;DHT22;3385;48.928;10.330;2023-07-24T11:54:58;19.60;99.90
6696;DHT22;3385;48.928;10.330;2023-07-24T11:57:29;19.00;99.90
6696;DHT22;3385;48.928;10.330;2023-07-24T11:59:54;18.80;99.90
6696;DHT22;3385;48.928;10.330;2023-07-24T12:04:57;18.70;99.90
6696;DHT22;3385;48.928;10.330;2023-07-24T12:13:01;18.50;99.90
6696;DHT22;3385;48.928;10.330;2023-07-24T12:15:26;18.70;99.90
6696;DHT22;3385;48.928;10.330;2023-07-24T12:17:52;19.10;99.90
6696;DHT22;3385;48.928;10.330;2023-07-24T12:20:18;19.10;99.90
6696;DHT22;3385;48.928;10.330;2023-07-24T12:22:44;19.20;99.90
6696;DHT22;3385;48.928;10.330;2023-07-24T12:27:36;20.20;99.90
6696;DHT22;3385;48.928;10.330;2023-07-24T12:30:03;19.80;99.90
6696;DHT22;3385;48.928;10.330;2023-07-24T12:32:29;19.90;99.90
6696;DHT22;3385;48.928;10.330;2023-07-24T12:34:55;20.80;99.90
6696;DHT22;3385;48.928;10.330;2023-07-24T12:42:21;23.50;99.90
6696;DHT22;3385;48.928;10.330;2023-07-24T12:49:45;25.40;99.90
6696;DHT22;3385;48.928;10.330;2023-07-24T12:52:11;26.90;99.90
6696;DHT22;3385;48.928;10.330;2023-07-24T12:54:37;27.10;99.90
6696;DHT22;3385;48.928;10.330;2023-07-24T12:57:03;26.80;99.90
6696;DHT22;3385;48.928;10.330;2023-07-24T12:59:29;26.80;99.90
6696;DHT22;3385;48.928;10.330;2023-07-24T13:01:55;27.20;99.90
6696;DHT22;3385;48.928;10.330;2023-07-24T13:04:24;28.10;99.90
6696;DHT22;3385;48.928;10.330;2023-07-24T13:06:52;28.50;99.90
6696;DHT22;3385;48.928;10.330;2023-07-24T13:16:43;28.00;99.90
6696;DHT22;3385;48.928;10.330;2023-07-24T13:19:09;28.90;99.90
6696;DHT22;3385;48.928;10.330;2023-07-24T13:22:16;28.30;99.90
6696;DHT22;3385;48.928;10.330;2023-07-24T13:24:41;28.40;99.90
6696;DHT22;3385;48.928;10.330;2023-07-24T13:27:07;28.80;99.90
6696;DHT22;3385;48.928;10.330;2023-07-24T13:40:49;28.20;99.90
6696;DHT22;3385;48.928;10.330;2023-07-24T13:43:15;29.30;99.90
6696;DHT22;3385;48.928;10.330;2023-07-24T13:45:42;30.00;99.90
6696;DHT22;3385;48.928;10.330;2023-07-24T13:48:07;29.10;99.90
6696;DHT22;3385;48.928;10.330;2023-07-24T13:50:33;28.70;99.90
6696;DHT22;3385;48.928;10.330;2023-07-24T13:52:59;28.10;99.90
6696;DHT22;3385;48.928;10.330;2023-07-24T13:55:24;27.00;99.90
6696;DHT22;3385;48.928;10.330;2023-07-24T13:57:50;26.20;99.90
6696;DHT22;3385;48.928;10.330;2023-07-24T14:02:43;26.30;99.90
6696;DHT22;3385;48.928;10.330;2023-07-24T14:05:09;26.30;99.90
6696;DHT22;3385;48.928;10.330;2023-07-24T14:07:34;26.80;99.90
6696;DHT22;3385;48.928;10.330;2023-07-24T14:10:00;27.20;99.90
6696;DHT22;3385;48.928;10.330;2023-07-24T14:12:26;26.90;99.90
6696;DHT22;3385;48.928;10.330;2023-07-24T14:14:52;27.40;99.90
6696;DHT22;3385;48.928;10.330;2023-07-24T14:17:17;26.80;99.90
6696;DHT22;3385;48.928;10.330;2023-07-24T14:19:44;26.70;99.90
6696;DHT22;3385;48.928;10.330;2023-07-24T14:22:10;26.20;99.90
6696;DHT22;3385;48.928;10.330;2023-07-24T14:24:36;25.80;99.90
6696;DHT22;3385;48.928;10.330;2023-07-24T14:27:01;26.00;99.90
6696;DHT22;3385;48.928;10.330;2023-07-24T14:29:27;26.00;99.90
6696;DHT22;3385;48.928;10.330;2023-07-24T14:31:53;25.80;99.90
6696;DHT22;3385;48.928;10.330;2023-07-24T14:34:19;26.00;99.90
6696;DHT22;3385;48.928;10.330;2023-07-24T14:36:44;26.30;99.90
6696;DHT22;3385;48.928;10.330;2023-07-24T14:39:10;26.10;99.90
6696;DHT22;3385;48.928;10.330;2023-07-24T14:41:36;26.70;99.90
6696;DHT22;3385;48.928;10.330;2023-07-24T14:44:01;26.30;99.90
6696;DHT22;3385;48.928;10.330;2023-07-24T14:46:27;26.10;99.90
6696;DHT22;3385;48.928;10.330;2023-07-24T14:48:53;25.50;99.90
6696;DHT22;3385;48.928;10.330;2023-07-24T14:51:20;25.30;99.90
6696;DHT22;3385;48.928;10.330;2023-07-24T14:53:46;24.80;99.90
6696;DHT22;3385;48.928;10.330;2023-07-24T14:56:12;24.70;99.90
6696;DHT22;3385;48.928;10.330;2023-07-24T14:58:38;24.00;99.90
6696;DHT22;3385;48.928;10.330;2023-07-24T15:01:03;24.00;99.90
6696;DHT22;3385;48.928;10.330;2023-07-24T15:03:30;23.20;99.90
6696;DHT22;3385;48.928;10.330;2023-07-24T15:05:56;23.10;99.90
6696;DHT22;3385;48.928;10.330;2023-07-24T15:08:22;23.00;99.90
6696;DHT22;3385;48.928;10.330;2023-07-24T15:10:48;23.70;99.90
6696;DHT22;3385;48.928;10.330;2023-07-24T15:13:14;23.40;99.90
6696;DHT22;3385;48.928;10.330;2023-07-24T15:15:39;23.60;99.90
6696;DHT22;3385;48.928;10.330;2023-07-24T15:18:05;23.00;99.90
6696;DHT22;3385;48.928;10.330;2023-07-24T15:20:32;22.90;99.90
6696;DHT22;3385;48.928;10.330;2023-07-24T15:22:57;22.70;99.90
6696;DHT22;3385;48.928;10.330;2023-07-24T15:25:23;22.40;99.90
6696;DHT22;3385;48.928;10.330;2023-07-24T15:27:49;22.60;99.90
6696;DHT22;3385;48.928;10.330;2023-07-24T15:30:14;22.50;99.90
6696;DHT22;3385;48.928;10.330;2023-07-24T15:32:40;22.60;99.90
6696;DHT22;3385;48.928;10.330;2023-07-24T15:35:06;22.70;99.90
6696;DHT22;3385;48.928;10.330;2023-07-24T15:39:59;22.60;99.90
6696;DHT22;3385;48.928;10.330;2023-07-24T15:42:25;22.60;99.90
6696;DHT22;3385;48.928;10.330;2023-07-24T15:44:51;22.60;99.90
6696;DHT22;3385;48.928;10.330;2023-07-24T15:47:17;22.70;99.90
6696;DHT22;3385;48.928;10.330;2023-07-24T15:49:42;23.20;99.90
6696;DHT22;3385;48.928;10.330;2023-07-24T15:52:08;23.00;99.90
6696;DHT22;3385;48.928;10.330;2023-07-24T15:54:35;22.90;99.90
6696;DHT22;3385;48.928;10.330;2023-07-24T15:57:01;22.70;99.90
6696;DHT22;3385;48.928;10.330;2023-07-24T15:59:27;22.50;99.90
6696;DHT22;3385;48.928;10.330;2023-07-24T16:01:54;22.50;99.90
6696;DHT22;3385;48.928;10.330;2023-07-24T16:04:20;22.50;99.90
6696;DHT22;3385;48.928;10.330;2023-07-24T16:06:47;22.30;99.90
6696;DHT22;3385;48.928;10.330;2023-07-24T16:09:12;22.20;99.90
6696;DHT22;3385;48.928;10.330;2023-07-24T16:11:38;22.30;99.90
6696;DHT22;3385;48.928;10.330;2023-07-24T16:14:05;22.70;99.90
6696;DHT22;3385;48.928;10.330;2023-07-24T16:16:30;22.60;99.90
6696;DHT22;3385;48.928;10.330;2023-07-24T16:19:17;22.00;99.90
6696;DHT22;3385;48.928;10.330;2023-07-24T16:21:44;21.80;99.90
6696;DHT22;3385;48.928;10.330;2023-07-24T16:24:11;22.10;99.90
6696;DHT22;3385;48.928;10.330;2023-07-24T16:26:37;22.00;99.90
6696;DHT22;3385;48.928;10.330;2023-07-24T16:29:04;22.10;99.90
6696;DHT22;3385;48.928;10.330;2023-07-24T16:31:30;21.80;99.90
6696;DHT22;3385;48.928;10.330;2023-07-24T16:33:56;22.20;99.90
6696;DHT22;3385;48.928;10.330;2023-07-24T16:36:22;22.40;99.90
6696;DHT22;3385;48.928;10.330;2023-07-24T16:38:48;22.20;99.90
6696;DHT22;3385;48.928;10.330;2023-07-24T16:41:14;22.20;99.90
6696;DHT22;3385;48.928;10.330;2023-07-24T16:43:40;22.40;99.90